sensor_id;sensor_type;location;lat;lon;timestamp;P1;durP1;ratioP1;P2;durP2;ratioP2
61704;SDS011;47627;48.078;11.522;2023-03-01T00:01:18;34.97;;;24.35;;
61704;SDS011;47627;48.078;11.522;2023-03-01T00:03:44;35.83;;;25.02;;
61704;SDS011;47627;48.078;11.522;2023-03-01T00:06:09;33.85;;;24.67;;
61704;SDS011;47627;48.078;11.522;2023-03-01T00:08:34;35.13;;;25.52;;
61704;SDS011;47627;48.078;11.522;2023-03-01T00:11:10;35.25;;;25.70;;
61704;SDS011;47627;48.078;11.522;2023-03-01T00:13:36;34.17;;;23.95;;
61704;SDS011;47627;48.078;11.522;2023-03-01T00:16:11;34.53;;;24.85;;
61704;SDS011;47627;48.078;11.522;2023-03-01T00:18:36;33.97;;;24.35;;
61704;SDS011;47627;48.078;11.522;2023-03-01T00:21:02;36.50;;;24.55;;
61704;SDS011;47627;48.078;11.522;2023-03-01T00:23:27;31.77;;;24.02;;
61704;SDS011;47627;48.078;11.522;2023-03-01T00:25:53;35.97;;;24.17;;
61704;SDS011;47627;48.078;11.522;2023-03-01T00:28:19;35.28;;;25.10;;
61704;SDS011;47627;48.078;11.522;2023-03-01T00:30:44;32.90;;;24.60;;
61704;SDS011;47627;48.078;11.522;2023-03-01T00:33:10;34.65;;;23.95;;
61704;SDS011;47627;48.078;11.522;2023-03-01T00:35:35;33.88;;;25.20;;
61704;SDS011;47627;48.078;11.522;2023-03-01T00:38:00;32.97;;;23.67;;
61704;SDS011;47627;48.078;11.522;2023-03-01T00:40:30;36.63;;;25.40;;
61704;SDS011;47627;48.078;11.522;2023-03-01T00:42:55;35.85;;;24.92;;
61704;SDS011;47627;48.078;11.522;2023-03-01T00:45:21;35.67;;;25.52;;
61704;SDS011;47627;48.078;11.522;2023-03-01T00:47:46;33.75;;;22.95;;
61704;SDS011;47627;48.078;11.522;2023-03-01T00:50:12;33.83;;;24.35;;
61704;SDS011;47627;48.078;11.522;2023-03-01T00:52:37;35.60;;;25.25;;
61704;SDS011;47627;48.078;11.522;2023-03-01T00:55:03;36.42;;;25.98;;
61704;SDS011;47627;48.078;11.522;2023-03-01T00:57:28;35.42;;;25.02;;
61704;SDS011;47627;48.078;11.522;2023-03-01T00:59:54;32.10;;;23.88;;
61704;SDS011;47627;48.078;11.522;2023-03-01T01:02:19;39.70;;;26.95;;
61704;SDS011;47627;48.078;11.522;2023-03-01T01:04:45;36.20;;;25.17;;
61704;SDS011;47627;48.078;11.522;2023-03-01T01:07:10;35.85;;;24.73;;
61704;SDS011;47627;48.078;11.522;2023-03-01T01:09:36;36.45;;;24.73;;
61704;SDS011;47627;48.078;11.522;2023-03-01T01:12:02;36.95;;;26.30;;
61704;SDS011;47627;48.078;11.522;2023-03-01T01:14:28;36.42;;;25.75;;
61704;SDS011;47627;48.078;11.522;2023-03-01T01:16:53;35.53;;;25.08;;
61704;SDS011;47627;48.078;11.522;2023-03-01T01:19:18;38.55;;;25.77;;
61704;SDS011;47627;48.078;11.522;2023-03-01T01:21:43;36.47;;;25.80;;
61704;SDS011;47627;48.078;11.522;2023-03-01T01:24:10;36.42;;;25.77;;
61704;SDS011;47627;48.078;11.522;2023-03-01T01:26:35;36.28;;;25.20;;
61704;SDS011;47627;48.078;11.522;2023-03-01T01:29:01;36.55;;;25.50;;
61704;SDS011;47627;48.078;11.522;2023-03-01T01:31:27;37.20;;;25.38;;
61704;SDS011;47627;48.078;11.522;2023-03-01T01:33:53;35.00;;;25.67;;
61704;SDS011;47627;48.078;11.522;2023-03-01T01:36:18;35.15;;;25.45;;
61704;SDS011;47627;48.078;11.522;2023-03-01T01:38:44;35.63;;;25.23;;
61704;SDS011;47627;48.078;11.522;2023-03-01T01:41:10;33.63;;;24.33;;
61704;SDS011;47627;48.078;11.522;2023-03-01T01:43:42;37.33;;;24.98;;
61704;SDS011;47627;48.078;11.522;2023-03-01T01:46:15;34.80;;;24.95;;
61704;SDS011;47627;48.078;11.522;2023-03-01T01:48:44;39.35;;;26.48;;
61704;SDS011;47627;48.078;11.522;2023-03-01T01:51:13;36.95;;;24.98;;
61704;SDS011;47627;48.078;11.522;2023-03-01T01:53:40;36.80;;;24.50;;
61704;SDS011;47627;48.078;11.522;2023-03-01T01:56:07;36.00;;;26.02;;
61704;SDS011;47627;48.078;11.522;2023-03-01T01:58:33;36.80;;;25.90;;
61704;SDS011;47627;48.078;11.522;2023-03-01T02:00:58;36.33;;;26.15;;
61704;SDS011;47627;48.078;11.522;2023-03-01T02:03:26;34.13;;;24.33;;
61704;SDS011;47627;48.078;11.522;2023-03-01T02:05:57;39.45;;;24.08;;
61704;SDS011;47627;48.078;11.522;2023-03-01T02:08:26;34.47;;;25.92;;
61704;SDS011;47627;48.078;11.522;2023-03-01T02:10:52;36.58;;;26.23;;
61704;SDS011;47627;48.078;11.522;2023-03-01T02:13:18;36.65;;;25.77;;
61704;SDS011;47627;48.078;11.522;2023-03-01T02:15:43;37.85;;;25.48;;
61704;SDS011;47627;48.078;11.522;2023-03-01T02:18:10;38.30;;;25.85;;
61704;SDS011;47627;48.078;11.522;2023-03-01T02:23:21;36.83;;;25.67;;
61704;SDS011;47627;48.078;11.522;2023-03-01T02:25:51;35.78;;;25.63;;
61704;SDS011;47627;48.078;11.522;2023-03-01T02:30:48;35.15;;;25.25;;
61704;SDS011;47627;48.078;11.522;2023-03-01T02:33:33;35.25;;;25.48;;
61704;SDS011;47627;48.078;11.522;2023-03-01T02:36:01;37.45;;;25.33;;
61704;SDS011;47627;48.078;11.522;2023-03-01T02:38:28;35.15;;;25.25;;
61704;SDS011;47627;48.078;11.522;2023-03-01T02:40:53;33.95;;;24.90;;
61704;SDS011;47627;48.078;11.522;2023-03-01T02:43:19;33.97;;;24.70;;
61704;SDS011;47627;48.078;11.522;2023-03-01T02:45:48;38.28;;;26.38;;
61704;SDS011;47627;48.078;11.522;2023-03-01T02:48:14;34.42;;;25.25;;
61704;SDS011;47627;48.078;11.522;2023-03-01T02:55:42;33.38;;;24.88;;
61704;SDS011;47627;48.078;11.522;2023-03-01T02:58:08;35.05;;;25.40;;
61704;SDS011;47627;48.078;11.522;2023-03-01T03:00:37;35.80;;;26.13;;
61704;SDS011;47627;48.078;11.522;2023-03-01T03:03:12;38.00;;;26.02;;
61704;SDS011;47627;48.078;11.522;2023-03-01T03:05:38;35.92;;;25.35;;
61704;SDS011;47627;48.078;11.522;2023-03-01T03:08:04;40.25;;;26.10;;
61704;SDS011;47627;48.078;11.522;2023-03-01T03:10:34;36.83;;;24.98;;
61704;SDS011;47627;48.078;11.522;2023-03-01T03:13:03;35.97;;;24.27;;
61704;SDS011;47627;48.078;11.522;2023-03-01T03:15:29;35.88;;;24.70;;
61704;SDS011;47627;48.078;11.522;2023-03-01T03:17:54;38.35;;;25.70;;
61704;SDS011;47627;48.078;11.522;2023-03-01T03:20:20;33.60;;;25.63;;
61704;SDS011;47627;48.078;11.522;2023-03-01T03:22:47;39.42;;;28.42;;
61704;SDS011;47627;48.078;11.522;2023-03-01T03:25:13;36.83;;;25.65;;
61704;SDS011;47627;48.078;11.522;2023-03-01T03:27:39;42.53;;;26.98;;
61704;SDS011;47627;48.078;11.522;2023-03-01T03:30:05;39.63;;;25.55;;
61704;SDS011;47627;48.078;11.522;2023-03-01T03:32:35;34.45;;;25.70;;
61704;SDS011;47627;48.078;11.522;2023-03-01T03:35:00;34.00;;;25.15;;
61704;SDS011;47627;48.078;11.522;2023-03-01T03:37:25;35.05;;;25.25;;
61704;SDS011;47627;48.078;11.522;2023-03-01T03:40:09;34.97;;;25.73;;
61704;SDS011;47627;48.078;11.522;2023-03-01T03:42:40;33.88;;;25.10;;
61704;SDS011;47627;48.078;11.522;2023-03-01T03:45:05;33.85;;;24.30;;
61704;SDS011;47627;48.078;11.522;2023-03-01T03:47:31;37.33;;;25.67;;
61704;SDS011;47627;48.078;11.522;2023-03-01T03:49:56;37.10;;;25.13;;
61704;SDS011;47627;48.078;11.522;2023-03-01T03:52:21;33.92;;;25.63;;
61704;SDS011;47627;48.078;11.522;2023-03-01T03:54:46;36.17;;;26.20;;
61704;SDS011;47627;48.078;11.522;2023-03-01T03:57:12;35.28;;;25.70;;
61704;SDS011;47627;48.078;11.522;2023-03-01T03:59:37;40.45;;;26.75;;
61704;SDS011;47627;48.078;11.522;2023-03-01T04:02:02;34.70;;;25.70;;
61704;SDS011;47627;48.078;11.522;2023-03-01T04:04:27;35.05;;;24.98;;
61704;SDS011;47627;48.078;11.522;2023-03-01T04:06:52;36.25;;;25.17;;
61704;SDS011;47627;48.078;11.522;2023-03-01T04:09:18;38.05;;;27.23;;
61704;SDS011;47627;48.078;11.522;2023-03-01T04:11:43;36.15;;;25.63;;
61704;SDS011;47627;48.078;11.522;2023-03-01T04:14:08;39.17;;;26.50;;
61704;SDS011;47627;48.078;11.522;2023-03-01T04:16:34;41.28;;;26.95;;
61704;SDS011;47627;48.078;11.522;2023-03-01T04:18:59;37.15;;;26.85;;
61704;SDS011;47627;48.078;11.522;2023-03-01T04:21:25;35.22;;;25.75;;
61704;SDS011;47627;48.078;11.522;2023-03-01T04:23:50;37.97;;;26.10;;
61704;SDS011;47627;48.078;11.522;2023-03-01T04:26:17;38.15;;;26.92;;
61704;SDS011;47627;48.078;11.522;2023-03-01T04:28:43;36.63;;;26.10;;
61704;SDS011;47627;48.078;11.522;2023-03-01T04:31:14;37.00;;;27.50;;
61704;SDS011;47627;48.078;11.522;2023-03-01T04:33:48;38.90;;;26.83;;
61704;SDS011;47627;48.078;11.522;2023-03-01T04:36:14;40.80;;;27.25;;
61704;SDS011;47627;48.078;11.522;2023-03-01T04:38:40;39.10;;;27.70;;
61704;SDS011;47627;48.078;11.522;2023-03-01T04:41:06;41.88;;;26.52;;
61704;SDS011;47627;48.078;11.522;2023-03-01T04:43:31;39.85;;;26.95;;
61704;SDS011;47627;48.078;11.522;2023-03-01T04:46:04;38.90;;;26.75;;
61704;SDS011;47627;48.078;11.522;2023-03-01T04:48:30;40.10;;;26.80;;
61704;SDS011;47627;48.078;11.522;2023-03-01T04:50:56;39.45;;;26.45;;
61704;SDS011;47627;48.078;11.522;2023-03-01T04:53:21;35.10;;;26.35;;
61704;SDS011;47627;48.078;11.522;2023-03-01T04:55:46;41.15;;;26.65;;
61704;SDS011;47627;48.078;11.522;2023-03-01T04:58:11;36.83;;;26.80;;
61704;SDS011;47627;48.078;11.522;2023-03-01T05:00:37;35.80;;;26.38;;
61704;SDS011;47627;48.078;11.522;2023-03-01T05:03:02;37.83;;;25.35;;
61704;SDS011;47627;48.078;11.522;2023-03-01T05:05:28;37.03;;;26.20;;
61704;SDS011;47627;48.078;11.522;2023-03-01T05:07:54;40.35;;;28.60;;
61704;SDS011;47627;48.078;11.522;2023-03-01T05:10:20;41.38;;;28.90;;
61704;SDS011;47627;48.078;11.522;2023-03-01T05:12:45;44.22;;;28.08;;
61704;SDS011;47627;48.078;11.522;2023-03-01T05:15:11;40.92;;;28.17;;
61704;SDS011;47627;48.078;11.522;2023-03-01T05:17:37;36.85;;;27.05;;
61704;SDS011;47627;48.078;11.522;2023-03-01T05:20:02;35.70;;;27.40;;
61704;SDS011;47627;48.078;11.522;2023-03-01T05:22:33;40.35;;;28.60;;
61704;SDS011;47627;48.078;11.522;2023-03-01T05:24:58;40.67;;;27.95;;
61704;SDS011;47627;48.078;11.522;2023-03-01T05:27:23;42.42;;;28.08;;
61704;SDS011;47627;48.078;11.522;2023-03-01T05:29:48;40.33;;;27.15;;
61704;SDS011;47627;48.078;11.522;2023-03-01T05:32:14;37.80;;;28.13;;
61704;SDS011;47627;48.078;11.522;2023-03-01T05:34:40;39.33;;;27.40;;
61704;SDS011;47627;48.078;11.522;2023-03-01T05:37:06;38.15;;;26.60;;
61704;SDS011;47627;48.078;11.522;2023-03-01T05:39:32;42.65;;;27.60;;
61704;SDS011;47627;48.078;11.522;2023-03-01T05:41:58;40.72;;;29.25;;
61704;SDS011;47627;48.078;11.522;2023-03-01T05:44:26;40.22;;;28.20;;
61704;SDS011;47627;48.078;11.522;2023-03-01T05:46:51;38.97;;;28.52;;
61704;SDS011;47627;48.078;11.522;2023-03-01T05:49:16;40.10;;;27.40;;
61704;SDS011;47627;48.078;11.522;2023-03-01T05:51:42;36.92;;;27.55;;
61704;SDS011;47627;48.078;11.522;2023-03-01T05:54:08;36.97;;;26.88;;
61704;SDS011;47627;48.078;11.522;2023-03-01T05:56:34;38.75;;;28.08;;
61704;SDS011;47627;48.078;11.522;2023-03-01T05:59:03;37.20;;;26.83;;
61704;SDS011;47627;48.078;11.522;2023-03-01T06:01:29;42.25;;;27.52;;
61704;SDS011;47627;48.078;11.522;2023-03-01T06:03:55;39.95;;;29.75;;
61704;SDS011;47627;48.078;11.522;2023-03-01T06:06:21;34.95;;;26.83;;
61704;SDS011;47627;48.078;11.522;2023-03-01T06:08:47;40.97;;;28.20;;
61704;SDS011;47627;48.078;11.522;2023-03-01T06:11:12;39.90;;;28.60;;
61704;SDS011;47627;48.078;11.522;2023-03-01T06:13:37;38.25;;;28.08;;
61704;SDS011;47627;48.078;11.522;2023-03-01T06:16:05;38.80;;;28.17;;
61704;SDS011;47627;48.078;11.522;2023-03-01T06:18:31;43.53;;;28.30;;
61704;SDS011;47627;48.078;11.522;2023-03-01T06:20:56;39.13;;;27.45;;
61704;SDS011;47627;48.078;11.522;2023-03-01T06:23:22;39.47;;;27.15;;
61704;SDS011;47627;48.078;11.522;2023-03-01T06:25:48;39.08;;;27.75;;
61704;SDS011;47627;48.078;11.522;2023-03-01T06:28:13;40.45;;;27.27;;
61704;SDS011;47627;48.078;11.522;2023-03-01T06:30:38;38.28;;;27.67;;
61704;SDS011;47627;48.078;11.522;2023-03-01T06:33:03;39.95;;;27.80;;
61704;SDS011;47627;48.078;11.522;2023-03-01T06:35:29;37.03;;;26.92;;
61704;SDS011;47627;48.078;11.522;2023-03-01T06:37:55;37.47;;;27.63;;
61704;SDS011;47627;48.078;11.522;2023-03-01T06:40:20;42.58;;;27.25;;
61704;SDS011;47627;48.078;11.522;2023-03-01T06:42:47;43.97;;;28.73;;
61704;SDS011;47627;48.078;11.522;2023-03-01T06:45:14;42.25;;;28.00;;
61704;SDS011;47627;48.078;11.522;2023-03-01T06:47:39;40.10;;;28.27;;
61704;SDS011;47627;48.078;11.522;2023-03-01T06:50:05;39.45;;;27.55;;
61704;SDS011;47627;48.078;11.522;2023-03-01T06:52:30;38.33;;;27.70;;
61704;SDS011;47627;48.078;11.522;2023-03-01T06:54:55;42.42;;;27.02;;
61704;SDS011;47627;48.078;11.522;2023-03-01T06:57:21;43.45;;;29.65;;
61704;SDS011;47627;48.078;11.522;2023-03-01T06:59:46;41.47;;;28.90;;
61704;SDS011;47627;48.078;11.522;2023-03-01T07:02:12;42.88;;;29.58;;
61704;SDS011;47627;48.078;11.522;2023-03-01T07:04:37;40.83;;;27.30;;
61704;SDS011;47627;48.078;11.522;2023-03-01T07:07:03;40.40;;;27.70;;
61704;SDS011;47627;48.078;11.522;2023-03-01T07:09:28;40.50;;;28.25;;
61704;SDS011;47627;48.078;11.522;2023-03-01T07:11:53;41.63;;;27.58;;
61704;SDS011;47627;48.078;11.522;2023-03-01T07:14:18;42.10;;;28.70;;
61704;SDS011;47627;48.078;11.522;2023-03-01T07:16:45;43.25;;;27.23;;
61704;SDS011;47627;48.078;11.522;2023-03-01T07:19:10;40.80;;;29.00;;
61704;SDS011;47627;48.078;11.522;2023-03-01T07:21:35;39.55;;;27.38;;
61704;SDS011;47627;48.078;11.522;2023-03-01T07:24:02;45.38;;;30.27;;
61704;SDS011;47627;48.078;11.522;2023-03-01T07:26:27;43.88;;;28.00;;
61704;SDS011;47627;48.078;11.522;2023-03-01T07:28:52;39.78;;;27.92;;
61704;SDS011;47627;48.078;11.522;2023-03-01T07:31:18;41.25;;;27.60;;
61704;SDS011;47627;48.078;11.522;2023-03-01T07:33:43;40.22;;;27.92;;
61704;SDS011;47627;48.078;11.522;2023-03-01T07:36:08;45.67;;;28.90;;
61704;SDS011;47627;48.078;11.522;2023-03-01T07:38:34;43.38;;;28.98;;
61704;SDS011;47627;48.078;11.522;2023-03-01T07:41:00;45.50;;;29.08;;
61704;SDS011;47627;48.078;11.522;2023-03-01T07:43:25;51.47;;;30.83;;
61704;SDS011;47627;48.078;11.522;2023-03-01T07:45:50;46.88;;;29.67;;
61704;SDS011;47627;48.078;11.522;2023-03-01T07:48:16;43.60;;;29.25;;
61704;SDS011;47627;48.078;11.522;2023-03-01T07:50:41;48.63;;;29.98;;
61704;SDS011;47627;48.078;11.522;2023-03-01T07:53:07;44.65;;;29.83;;
61704;SDS011;47627;48.078;11.522;2023-03-01T07:55:32;45.38;;;29.77;;
61704;SDS011;47627;48.078;11.522;2023-03-01T07:57:57;41.95;;;27.48;;
61704;SDS011;47627;48.078;11.522;2023-03-01T08:00:22;41.70;;;28.05;;
61704;SDS011;47627;48.078;11.522;2023-03-01T08:02:47;46.92;;;28.80;;
61704;SDS011;47627;48.078;11.522;2023-03-01T08:05:13;42.42;;;28.55;;
61704;SDS011;47627;48.078;11.522;2023-03-01T08:07:38;41.35;;;28.55;;
61704;SDS011;47627;48.078;11.522;2023-03-01T08:10:03;44.17;;;28.40;;
61704;SDS011;47627;48.078;11.522;2023-03-01T08:12:29;41.72;;;28.70;;
61704;SDS011;47627;48.078;11.522;2023-03-01T08:14:54;42.15;;;28.50;;
61704;SDS011;47627;48.078;11.522;2023-03-01T08:17:19;45.97;;;29.25;;
61704;SDS011;47627;48.078;11.522;2023-03-01T08:19:45;39.83;;;28.33;;
61704;SDS011;47627;48.078;11.522;2023-03-01T08:22:10;50.25;;;31.10;;
61704;SDS011;47627;48.078;11.522;2023-03-01T08:24:36;47.72;;;30.17;;
61704;SDS011;47627;48.078;11.522;2023-03-01T08:27:01;41.97;;;28.73;;
61704;SDS011;47627;48.078;11.522;2023-03-01T08:29:27;43.95;;;27.98;;
61704;SDS011;47627;48.078;11.522;2023-03-01T08:31:53;42.53;;;29.73;;
61704;SDS011;47627;48.078;11.522;2023-03-01T08:34:18;46.58;;;29.70;;
61704;SDS011;47627;48.078;11.522;2023-03-01T08:36:44;41.08;;;28.13;;
61704;SDS011;47627;48.078;11.522;2023-03-01T08:39:10;40.75;;;28.70;;
61704;SDS011;47627;48.078;11.522;2023-03-01T08:41:36;42.13;;;28.42;;
61704;SDS011;47627;48.078;11.522;2023-03-01T08:44:01;43.88;;;29.30;;
61704;SDS011;47627;48.078;11.522;2023-03-01T08:46:27;48.05;;;30.13;;
61704;SDS011;47627;48.078;11.522;2023-03-01T08:48:53;44.53;;;29.33;;
61704;SDS011;47627;48.078;11.522;2023-03-01T08:51:19;44.03;;;29.42;;
61704;SDS011;47627;48.078;11.522;2023-03-01T08:53:44;45.17;;;29.88;;
61704;SDS011;47627;48.078;11.522;2023-03-01T08:56:10;42.85;;;29.50;;
61704;SDS011;47627;48.078;11.522;2023-03-01T08:58:35;49.03;;;29.98;;
61704;SDS011;47627;48.078;11.522;2023-03-01T09:01:04;46.33;;;30.85;;
61704;SDS011;47627;48.078;11.522;2023-03-01T09:03:31;46.75;;;29.45;;
61704;SDS011;47627;48.078;11.522;2023-03-01T09:05:59;46.20;;;29.65;;
61704;SDS011;47627;48.078;11.522;2023-03-01T09:08:25;44.45;;;30.00;;
61704;SDS011;47627;48.078;11.522;2023-03-01T09:10:50;42.38;;;28.63;;
61704;SDS011;47627;48.078;11.522;2023-03-01T09:13:15;42.60;;;29.17;;
61704;SDS011;47627;48.078;11.522;2023-03-01T09:15:40;46.40;;;29.17;;
61704;SDS011;47627;48.078;11.522;2023-03-01T09:18:05;43.15;;;29.17;;
61704;SDS011;47627;48.078;11.522;2023-03-01T09:23:59;45.33;;;29.10;;
61704;SDS011;47627;48.078;11.522;2023-03-01T09:29:52;42.78;;;29.05;;
61704;SDS011;47627;48.078;11.522;2023-03-01T09:32:17;42.22;;;29.90;;
61704;SDS011;47627;48.078;11.522;2023-03-01T09:34:42;45.47;;;30.38;;
61704;SDS011;47627;48.078;11.522;2023-03-01T09:39:51;42.85;;;27.92;;
61704;SDS011;47627;48.078;11.522;2023-03-01T09:42:16;46.63;;;29.85;;
61704;SDS011;47627;48.078;11.522;2023-03-01T09:47:12;43.40;;;29.65;;
61704;SDS011;47627;48.078;11.522;2023-03-01T09:49:39;44.00;;;30.35;;
61704;SDS011;47627;48.078;11.522;2023-03-01T09:52:15;44.60;;;29.27;;
61704;SDS011;47627;48.078;11.522;2023-03-01T09:54:44;43.83;;;29.13;;
61704;SDS011;47627;48.078;11.522;2023-03-01T09:57:20;45.10;;;29.50;;
61704;SDS011;47627;48.078;11.522;2023-03-01T10:02:44;47.35;;;30.55;;
61704;SDS011;47627;48.078;11.522;2023-03-01T10:05:14;44.17;;;27.55;;
61704;SDS011;47627;48.078;11.522;2023-03-01T10:10:23;55.22;;;31.73;;
61704;SDS011;47627;48.078;11.522;2023-03-01T10:12:51;44.72;;;30.13;;
61704;SDS011;47627;48.078;11.522;2023-03-01T10:15:18;47.83;;;30.23;;
61704;SDS011;47627;48.078;11.522;2023-03-01T10:20:43;45.63;;;30.88;;
61704;SDS011;47627;48.078;11.522;2023-03-01T10:23:11;45.50;;;29.83;;
61704;SDS011;47627;48.078;11.522;2023-03-01T10:28:24;43.88;;;29.08;;
61704;SDS011;47627;48.078;11.522;2023-03-01T10:30:50;42.83;;;29.63;;
61704;SDS011;47627;48.078;11.522;2023-03-01T10:33:23;44.00;;;29.30;;
61704;SDS011;47627;48.078;11.522;2023-03-01T10:35:49;44.08;;;30.25;;
61704;SDS011;47627;48.078;11.522;2023-03-01T10:38:15;44.15;;;29.50;;
61704;SDS011;47627;48.078;11.522;2023-03-01T10:43:18;44.83;;;29.88;;
61704;SDS011;47627;48.078;11.522;2023-03-01T10:45:44;45.08;;;30.27;;
61704;SDS011;47627;48.078;11.522;2023-03-01T10:48:19;40.55;;;28.17;;
61704;SDS011;47627;48.078;11.522;2023-03-01T10:50:49;40.60;;;27.73;;
61704;SDS011;47627;48.078;11.522;2023-03-01T10:53:34;39.58;;;25.95;;
61704;SDS011;47627;48.078;11.522;2023-03-01T10:58:29;46.28;;;27.27;;
61704;SDS011;47627;48.078;11.522;2023-03-01T11:01:05;39.80;;;26.25;;
61704;SDS011;47627;48.078;11.522;2023-03-01T11:03:31;42.03;;;26.92;;
61704;SDS011;47627;48.078;11.522;2023-03-01T11:05:59;40.28;;;27.00;;
61704;SDS011;47627;48.078;11.522;2023-03-01T11:11:32;38.28;;;26.25;;
61704;SDS011;47627;48.078;11.522;2023-03-01T11:16:35;40.60;;;26.42;;
61704;SDS011;47627;48.078;11.522;2023-03-01T11:19:13;37.88;;;26.13;;
61704;SDS011;47627;48.078;11.522;2023-03-01T11:21:55;41.70;;;27.33;;
61704;SDS011;47627;48.078;11.522;2023-03-01T11:24:24;40.63;;;27.00;;
61704;SDS011;47627;48.078;11.522;2023-03-01T11:26:52;39.30;;;25.15;;
61704;SDS011;47627;48.078;11.522;2023-03-01T11:29:26;36.17;;;25.40;;
61704;SDS011;47627;48.078;11.522;2023-03-01T11:31:52;41.90;;;25.83;;
61704;SDS011;47627;48.078;11.522;2023-03-01T11:34:24;38.08;;;26.95;;
61704;SDS011;47627;48.078;11.522;2023-03-01T11:36:58;40.92;;;28.05;;
61704;SDS011;47627;48.078;11.522;2023-03-01T11:39:28;38.15;;;27.30;;
61704;SDS011;47627;48.078;11.522;2023-03-01T11:42:06;37.78;;;26.10;;
61704;SDS011;47627;48.078;11.522;2023-03-01T11:44:33;41.33;;;28.75;;
61704;SDS011;47627;48.078;11.522;2023-03-01T11:48:01;38.72;;;27.30;;
61704;SDS011;47627;48.078;11.522;2023-03-01T11:49:58;38.30;;;28.10;;
61704;SDS011;47627;48.078;11.522;2023-03-01T11:55:07;38.40;;;27.52;;
61704;SDS011;47627;48.078;11.522;2023-03-01T12:00:14;37.00;;;27.15;;
61704;SDS011;47627;48.078;11.522;2023-03-01T12:10:51;41.22;;;28.17;;
61704;SDS011;47627;48.078;11.522;2023-03-01T12:16:22;39.30;;;27.50;;
61704;SDS011;47627;48.078;11.522;2023-03-01T12:18:52;38.92;;;26.73;;
61704;SDS011;47627;48.078;11.522;2023-03-01T12:26:41;37.93;;;26.47;;
61704;SDS011;47627;48.078;11.522;2023-03-01T12:29:18;40.75;;;27.08;;
61704;SDS011;47627;48.078;11.522;2023-03-01T12:34:38;39.40;;;29.08;;
61704;SDS011;47627;48.078;11.522;2023-03-01T12:39:41;34.75;;;25.48;;
61704;SDS011;47627;48.078;11.522;2023-03-01T12:42:31;37.95;;;25.83;;
61704;SDS011;47627;48.078;11.522;2023-03-01T12:45:12;33.65;;;25.92;;
61704;SDS011;47627;48.078;11.522;2023-03-01T12:52:51;39.38;;;26.30;;
61704;SDS011;47627;48.078;11.522;2023-03-01T13:00:52;36.10;;;27.13;;
61704;SDS011;47627;48.078;11.522;2023-03-01T13:03:20;38.40;;;28.48;;
61704;SDS011;47627;48.078;11.522;2023-03-01T13:05:52;37.72;;;27.80;;
61704;SDS011;47627;48.078;11.522;2023-03-01T13:08:42;43.92;;;29.83;;
61704;SDS011;47627;48.078;11.522;2023-03-01T13:11:18;40.80;;;28.20;;
61704;SDS011;47627;48.078;11.522;2023-03-01T13:13:44;43.20;;;28.92;;
61704;SDS011;47627;48.078;11.522;2023-03-01T13:21:39;34.92;;;26.88;;
61704;SDS011;47627;48.078;11.522;2023-03-01T13:24:22;38.38;;;28.27;;
61704;SDS011;47627;48.078;11.522;2023-03-01T13:31:57;37.58;;;26.42;;
61704;SDS011;47627;48.078;11.522;2023-03-01T13:34:43;37.45;;;26.98;;
61704;SDS011;47627;48.078;11.522;2023-03-01T13:37:09;34.78;;;26.35;;
61704;SDS011;47627;48.078;11.522;2023-03-01T13:39:39;35.88;;;27.83;;
61704;SDS011;47627;48.078;11.522;2023-03-01T13:42:25;31.08;;;26.30;;
61704;SDS011;47627;48.078;11.522;2023-03-01T13:44:49;34.67;;;27.48;;
61704;SDS011;47627;48.078;11.522;2023-03-01T13:47:16;36.05;;;28.20;;
61704;SDS011;47627;48.078;11.522;2023-03-01T13:49:53;34.35;;;27.92;;
61704;SDS011;47627;48.078;11.522;2023-03-01T13:52:27;32.78;;;25.90;;
61704;SDS011;47627;48.078;11.522;2023-03-01T13:54:55;32.50;;;25.25;;
61704;SDS011;47627;48.078;11.522;2023-03-01T13:57:28;34.33;;;26.50;;
61704;SDS011;47627;48.078;11.522;2023-03-01T13:59:55;34.33;;;24.58;;
61704;SDS011;47627;48.078;11.522;2023-03-01T14:02:20;32.10;;;25.13;;
61704;SDS011;47627;48.078;11.522;2023-03-01T14:04:55;31.52;;;25.98;;
61704;SDS011;47627;48.078;11.522;2023-03-01T14:07:21;30.77;;;25.52;;
61704;SDS011;47627;48.078;11.522;2023-03-01T14:15:27;33.15;;;26.00;;
61704;SDS011;47627;48.078;11.522;2023-03-01T14:18:10;34.15;;;27.45;;
61704;SDS011;47627;48.078;11.522;2023-03-01T14:23:08;30.95;;;25.33;;
61704;SDS011;47627;48.078;11.522;2023-03-01T14:25:35;33.00;;;25.85;;
61704;SDS011;47627;48.078;11.522;2023-03-01T14:30:41;32.50;;;26.00;;
61704;SDS011;47627;48.078;11.522;2023-03-01T14:33:17;32.10;;;25.92;;
61704;SDS011;47627;48.078;11.522;2023-03-01T14:35:51;32.92;;;25.33;;
61704;SDS011;47627;48.078;11.522;2023-03-01T14:38:20;34.37;;;25.80;;
61704;SDS011;47627;48.078;11.522;2023-03-01T14:40:45;31.70;;;25.13;;
61704;SDS011;47627;48.078;11.522;2023-03-01T14:43:32;30.48;;;25.02;;
61704;SDS011;47627;48.078;11.522;2023-03-01T14:45:56;33.42;;;25.38;;
61704;SDS011;47627;48.078;11.522;2023-03-01T14:48:37;29.65;;;24.75;;
61704;SDS011;47627;48.078;11.522;2023-03-01T14:51:03;32.20;;;24.65;;
61704;SDS011;47627;48.078;11.522;2023-03-01T14:53:29;32.95;;;25.17;;
61704;SDS011;47627;48.078;11.522;2023-03-01T14:55:55;30.48;;;25.30;;
61704;SDS011;47627;48.078;11.522;2023-03-01T14:58:22;30.80;;;25.33;;
61704;SDS011;47627;48.078;11.522;2023-03-01T15:00:49;33.42;;;25.63;;
61704;SDS011;47627;48.078;11.522;2023-03-01T15:03:19;32.25;;;25.58;;
61704;SDS011;47627;48.078;11.522;2023-03-01T15:05:45;33.67;;;25.42;;
61704;SDS011;47627;48.078;11.522;2023-03-01T15:08:16;32.95;;;25.48;;
61704;SDS011;47627;48.078;11.522;2023-03-01T15:10:54;35.13;;;26.05;;
61704;SDS011;47627;48.078;11.522;2023-03-01T15:13:23;33.03;;;24.90;;
61704;SDS011;47627;48.078;11.522;2023-03-01T15:15:49;29.90;;;23.90;;
61704;SDS011;47627;48.078;11.522;2023-03-01T15:18:22;33.83;;;24.67;;
61704;SDS011;47627;48.078;11.522;2023-03-01T15:20:50;33.45;;;25.60;;
61704;SDS011;47627;48.078;11.522;2023-03-01T15:25:48;32.65;;;22.67;;
61704;SDS011;47627;48.078;11.522;2023-03-01T15:28:21;34.60;;;25.02;;
61704;SDS011;47627;48.078;11.522;2023-03-01T15:30:51;33.03;;;24.05;;
61704;SDS011;47627;48.078;11.522;2023-03-01T15:35:45;35.78;;;26.15;;
61704;SDS011;47627;48.078;11.522;2023-03-01T15:38:25;34.10;;;25.02;;
61704;SDS011;47627;48.078;11.522;2023-03-01T15:40:51;30.67;;;24.00;;
61704;SDS011;47627;48.078;11.522;2023-03-01T15:48:26;35.97;;;25.10;;
61704;SDS011;47627;48.078;11.522;2023-03-01T15:50:55;36.80;;;24.98;;
61704;SDS011;47627;48.078;11.522;2023-03-01T15:53:21;31.15;;;23.80;;
61704;SDS011;47627;48.078;11.522;2023-03-01T15:55:47;33.63;;;24.02;;
61704;SDS011;47627;48.078;11.522;2023-03-01T15:58:32;31.08;;;23.88;;
61704;SDS011;47627;48.078;11.522;2023-03-01T16:00:57;31.88;;;23.80;;
61704;SDS011;47627;48.078;11.522;2023-03-01T16:03:23;34.78;;;24.05;;
61704;SDS011;47627;48.078;11.522;2023-03-01T16:05:49;33.33;;;24.30;;